sensor_id;sensor_type;location;lat;lon;timestamp;P1;durP1;ratioP1;P2;durP2;ratioP2
27744;SDS011;61387;48.112;8.616;2024-01-30T00:01:53;24.73;;;13.23;;
27744;SDS011;61387;48.112;8.616;2024-01-30T00:04:19;21.30;;;12.73;;
27744;SDS011;61387;48.112;8.616;2024-01-30T00:06:44;21.93;;;12.67;;
27744;SDS011;61387;48.112;8.616;2024-01-30T00:09:10;15.83;;;10.57;;
27744;SDS011;61387;48.112;8.616;2024-01-30T00:11:36;18.90;;;11.37;;
27744;SDS011;61387;48.112;8.616;2024-01-30T00:14:03;17.87;;;10.03;;
27744;SDS011;61387;48.112;8.616;2024-01-30T00:16:29;16.70;;;9.77;;
27744;SDS011;61387;48.112;8.616;2024-01-30T00:18:55;15.30;;;9.43;;
27744;SDS011;61387;48.112;8.616;2024-01-30T00:21:21;19.90;;;10.33;;
27744;SDS011;61387;48.112;8.616;2024-01-30T00:23:47;17.10;;;9.83;;
27744;SDS011;61387;48.112;8.616;2024-01-30T00:26:13;18.70;;;10.40;;
27744;SDS011;61387;48.112;8.616;2024-01-30T00:28:42;20.70;;;10.33;;
27744;SDS011;61387;48.112;8.616;2024-01-30T00:31:08;18.07;;;10.10;;
27744;SDS011;61387;48.112;8.616;2024-01-30T00:33:37;17.97;;;10.43;;
27744;SDS011;61387;48.112;8.616;2024-01-30T00:36:03;15.50;;;9.47;;
27744;SDS011;61387;48.112;8.616;2024-01-30T00:38:29;18.07;;;10.20;;
27744;SDS011;61387;48.112;8.616;2024-01-30T00:40:55;19.77;;;10.17;;
27744;SDS011;61387;48.112;8.616;2024-01-30T00:43:21;17.17;;;10.37;;
27744;SDS011;61387;48.112;8.616;2024-01-30T00:45:46;16.70;;;8.83;;
27744;SDS011;61387;48.112;8.616;2024-01-30T00:48:12;21.43;;;10.50;;
27744;SDS011;61387;48.112;8.616;2024-01-30T00:50:39;20.00;;;11.07;;
27744;SDS011;61387;48.112;8.616;2024-01-30T00:53:04;19.90;;;11.07;;
27744;SDS011;61387;48.112;8.616;2024-01-30T00:55:29;17.73;;;10.63;;
27744;SDS011;61387;48.112;8.616;2024-01-30T00:57:55;19.30;;;9.90;;
27744;SDS011;61387;48.112;8.616;2024-01-30T01:00:21;19.50;;;11.77;;
27744;SDS011;61387;48.112;8.616;2024-01-30T01:02:48;20.10;;;12.40;;
27744;SDS011;61387;48.112;8.616;2024-01-30T01:05:13;22.30;;;11.73;;
27744;SDS011;61387;48.112;8.616;2024-01-30T01:07:39;17.47;;;10.27;;
27744;SDS011;61387;48.112;8.616;2024-01-30T01:10:05;17.27;;;10.23;;
27744;SDS011;61387;48.112;8.616;2024-01-30T01:12:31;14.77;;;8.80;;
27744;SDS011;61387;48.112;8.616;2024-01-30T01:14:56;16.20;;;10.30;;
27744;SDS011;61387;48.112;8.616;2024-01-30T01:17:22;16.97;;;10.47;;
27744;SDS011;61387;48.112;8.616;2024-01-30T01:19:47;19.00;;;10.63;;
27744;SDS011;61387;48.112;8.616;2024-01-30T01:22:13;17.57;;;9.53;;
27744;SDS011;61387;48.112;8.616;2024-01-30T01:24:39;15.93;;;9.33;;
27744;SDS011;61387;48.112;8.616;2024-01-30T01:27:05;14.80;;;8.90;;
27744;SDS011;61387;48.112;8.616;2024-01-30T01:29:31;12.27;;;7.83;;
27744;SDS011;61387;48.112;8.616;2024-01-30T01:31:57;13.17;;;7.93;;
27744;SDS011;61387;48.112;8.616;2024-01-30T01:34:23;13.37;;;6.80;;
27744;SDS011;61387;48.112;8.616;2024-01-30T01:36:49;11.30;;;6.67;;
27744;SDS011;61387;48.112;8.616;2024-01-30T01:39:15;11.97;;;6.50;;
27744;SDS011;61387;48.112;8.616;2024-01-30T01:41:41;17.23;;;7.77;;
27744;SDS011;61387;48.112;8.616;2024-01-30T01:44:07;12.93;;;7.10;;
27744;SDS011;61387;48.112;8.616;2024-01-30T01:46:33;10.33;;;6.77;;
27744;SDS011;61387;48.112;8.616;2024-01-30T01:48:59;11.77;;;6.43;;
27744;SDS011;61387;48.112;8.616;2024-01-30T01:51:27;10.07;;;6.20;;
27744;SDS011;61387;48.112;8.616;2024-01-30T01:53:56;10.77;;;6.40;;
27744;SDS011;61387;48.112;8.616;2024-01-30T01:56:23;11.47;;;7.07;;
27744;SDS011;61387;48.112;8.616;2024-01-30T01:58:49;11.30;;;6.70;;
27744;SDS011;61387;48.112;8.616;2024-01-30T02:01:18;10.17;;;6.60;;
27744;SDS011;61387;48.112;8.616;2024-01-30T02:03:45;11.00;;;6.20;;
27744;SDS011;61387;48.112;8.616;2024-01-30T02:06:12;10.80;;;6.73;;
27744;SDS011;61387;48.112;8.616;2024-01-30T02:08:41;13.93;;;8.17;;
27744;SDS011;61387;48.112;8.616;2024-01-30T02:11:07;14.80;;;8.60;;
27744;SDS011;61387;48.112;8.616;2024-01-30T02:13:33;14.07;;;9.13;;
27744;SDS011;61387;48.112;8.616;2024-01-30T02:15:59;16.27;;;9.70;;
27744;SDS011;61387;48.112;8.616;2024-01-30T02:18:26;15.80;;;9.27;;
27744;SDS011;61387;48.112;8.616;2024-01-30T02:20:53;17.77;;;9.20;;
27744;SDS011;61387;48.112;8.616;2024-01-30T02:23:19;19.83;;;10.50;;
27744;SDS011;61387;48.112;8.616;2024-01-30T02:25:45;20.70;;;11.17;;
27744;SDS011;61387;48.112;8.616;2024-01-30T02:28:11;18.93;;;10.37;;
27744;SDS011;61387;48.112;8.616;2024-01-30T02:30:37;20.60;;;11.53;;
27744;SDS011;61387;48.112;8.616;2024-01-30T02:33:04;18.67;;;10.90;;
27744;SDS011;61387;48.112;8.616;2024-01-30T02:35:29;18.97;;;10.97;;
27744;SDS011;61387;48.112;8.616;2024-01-30T02:37:55;17.43;;;10.00;;
27744;SDS011;61387;48.112;8.616;2024-01-30T02:40:20;17.07;;;9.60;;
27744;SDS011;61387;48.112;8.616;2024-01-30T02:42:46;14.73;;;8.63;;
27744;SDS011;61387;48.112;8.616;2024-01-30T02:45:12;11.97;;;6.73;;
27744;SDS011;61387;48.112;8.616;2024-01-30T02:47:38;12.23;;;6.67;;
27744;SDS011;61387;48.112;8.616;2024-01-30T02:50:05;11.47;;;7.17;;
27744;SDS011;61387;48.112;8.616;2024-01-30T02:52:30;11.90;;;6.73;;
27744;SDS011;61387;48.112;8.616;2024-01-30T02:54:56;12.20;;;7.20;;
27744;SDS011;61387;48.112;8.616;2024-01-30T02:57:23;14.67;;;7.73;;
27744;SDS011;61387;48.112;8.616;2024-01-30T02:59:48;11.23;;;7.80;;
27744;SDS011;61387;48.112;8.616;2024-01-30T03:02:14;14.30;;;8.20;;
27744;SDS011;61387;48.112;8.616;2024-01-30T03:04:40;12.43;;;7.33;;
27744;SDS011;61387;48.112;8.616;2024-01-30T03:07:07;12.77;;;7.33;;
27744;SDS011;61387;48.112;8.616;2024-01-30T03:09:33;12.70;;;7.73;;
27744;SDS011;61387;48.112;8.616;2024-01-30T03:11:58;12.40;;;6.70;;
27744;SDS011;61387;48.112;8.616;2024-01-30T03:14:24;11.20;;;7.10;;
27744;SDS011;61387;48.112;8.616;2024-01-30T03:16:49;13.53;;;7.63;;
27744;SDS011;61387;48.112;8.616;2024-01-30T03:19:15;13.63;;;7.67;;
27744;SDS011;61387;48.112;8.616;2024-01-30T03:21:40;15.30;;;8.50;;
27744;SDS011;61387;48.112;8.616;2024-01-30T03:24:06;16.40;;;8.87;;
27744;SDS011;61387;48.112;8.616;2024-01-30T03:26:32;17.20;;;7.90;;
27744;SDS011;61387;48.112;8.616;2024-01-30T03:28:57;15.83;;;8.40;;
27744;SDS011;61387;48.112;8.616;2024-01-30T03:31:23;12.30;;;7.33;;
27744;SDS011;61387;48.112;8.616;2024-01-30T03:33:48;13.47;;;7.73;;
27744;SDS011;61387;48.112;8.616;2024-01-30T03:36:15;15.73;;;9.27;;
27744;SDS011;61387;48.112;8.616;2024-01-30T03:38:41;16.40;;;10.43;;
27744;SDS011;61387;48.112;8.616;2024-01-30T03:41:10;20.03;;;11.30;;
27744;SDS011;61387;48.112;8.616;2024-01-30T03:43:35;17.93;;;11.07;;
27744;SDS011;61387;48.112;8.616;2024-01-30T03:46:02;23.27;;;12.03;;
27744;SDS011;61387;48.112;8.616;2024-01-30T03:48:28;20.60;;;11.33;;
27744;SDS011;61387;48.112;8.616;2024-01-30T03:50:54;18.07;;;10.43;;
27744;SDS011;61387;48.112;8.616;2024-01-30T03:53:19;19.20;;;10.17;;
27744;SDS011;61387;48.112;8.616;2024-01-30T03:55:45;19.47;;;9.83;;
27744;SDS011;61387;48.112;8.616;2024-01-30T03:58:10;18.23;;;10.27;;
27744;SDS011;61387;48.112;8.616;2024-01-30T04:00:36;15.93;;;9.80;;
27744;SDS011;61387;48.112;8.616;2024-01-30T04:03:02;15.17;;;9.30;;
27744;SDS011;61387;48.112;8.616;2024-01-30T04:05:28;18.10;;;9.10;;
27744;SDS011;61387;48.112;8.616;2024-01-30T04:07:53;15.73;;;8.40;;
27744;SDS011;61387;48.112;8.616;2024-01-30T04:10:19;13.17;;;7.97;;
27744;SDS011;61387;48.112;8.616;2024-01-30T04:12:45;16.37;;;8.27;;
27744;SDS011;61387;48.112;8.616;2024-01-30T04:15:11;11.07;;;6.57;;
27744;SDS011;61387;48.112;8.616;2024-01-30T04:17:38;10.60;;;5.33;;
27744;SDS011;61387;48.112;8.616;2024-01-30T04:20:04;9.07;;;5.07;;
27744;SDS011;61387;48.112;8.616;2024-01-30T04:22:30;9.00;;;4.80;;
27744;SDS011;61387;48.112;8.616;2024-01-30T04:24:56;9.70;;;5.30;;
27744;SDS011;61387;48.112;8.616;2024-01-30T04:27:22;11.40;;;5.78;;
27744;SDS011;61387;48.112;8.616;2024-01-30T04:29:48;11.33;;;5.40;;
27744;SDS011;61387;48.112;8.616;2024-01-30T04:32:13;11.63;;;6.20;;
27744;SDS011;61387;48.112;8.616;2024-01-30T04:34:39;14.10;;;7.60;;
27744;SDS011;61387;48.112;8.616;2024-01-30T04:37:05;16.07;;;7.90;;
27744;SDS011;61387;48.112;8.616;2024-01-30T04:39:32;14.83;;;8.37;;
27744;SDS011;61387;48.112;8.616;2024-01-30T04:41:58;16.87;;;9.23;;
27744;SDS011;61387;48.112;8.616;2024-01-30T04:44:24;15.87;;;8.90;;
27744;SDS011;61387;48.112;8.616;2024-01-30T04:46:49;11.93;;;6.95;;
27744;SDS011;61387;48.112;8.616;2024-01-30T04:49:15;12.33;;;6.57;;
27744;SDS011;61387;48.112;8.616;2024-01-30T04:51:41;17.60;;;10.37;;
27744;SDS011;61387;48.112;8.616;2024-01-30T04:54:06;18.90;;;10.73;;
27744;SDS011;61387;48.112;8.616;2024-01-30T04:56:32;26.10;;;13.87;;
27744;SDS011;61387;48.112;8.616;2024-01-30T04:58:59;26.67;;;14.60;;
27744;SDS011;61387;48.112;8.616;2024-01-30T05:01:25;20.97;;;12.10;;
27744;SDS011;61387;48.112;8.616;2024-01-30T05:03:51;22.27;;;12.53;;
27744;SDS011;61387;48.112;8.616;2024-01-30T05:06:26;28.20;;;14.67;;
27744;SDS011;61387;48.112;8.616;2024-01-30T05:08:52;27.53;;;14.80;;
27744;SDS011;61387;48.112;8.616;2024-01-30T05:11:18;29.93;;;16.23;;
27744;SDS011;61387;48.112;8.616;2024-01-30T05:13:44;31.70;;;17.47;;
27744;SDS011;61387;48.112;8.616;2024-01-30T05:16:10;30.90;;;16.77;;
27744;SDS011;61387;48.112;8.616;2024-01-30T05:18:36;27.43;;;15.27;;
27744;SDS011;61387;48.112;8.616;2024-01-30T05:21:02;25.20;;;13.43;;
27744;SDS011;61387;48.112;8.616;2024-01-30T05:23:28;17.63;;;9.40;;
27744;SDS011;61387;48.112;8.616;2024-01-30T05:25:54;19.67;;;10.33;;
27744;SDS011;61387;48.112;8.616;2024-01-30T05:28:20;19.20;;;10.67;;
27744;SDS011;61387;48.112;8.616;2024-01-30T05:30:45;28.40;;;14.30;;
27744;SDS011;61387;48.112;8.616;2024-01-30T05:33:11;31.80;;;17.63;;
27744;SDS011;61387;48.112;8.616;2024-01-30T05:35:38;33.00;;;18.97;;
27744;SDS011;61387;48.112;8.616;2024-01-30T05:38:03;34.10;;;19.30;;
27744;SDS011;61387;48.112;8.616;2024-01-30T05:40:36;35.27;;;19.13;;
27744;SDS011;61387;48.112;8.616;2024-01-30T05:43:02;42.57;;;22.33;;
27744;SDS011;61387;48.112;8.616;2024-01-30T05:45:27;36.42;;;18.77;;
27744;SDS011;61387;48.112;8.616;2024-01-30T05:47:53;42.47;;;21.83;;
27744;SDS011;61387;48.112;8.616;2024-01-30T05:50:19;31.77;;;17.07;;
27744;SDS011;61387;48.112;8.616;2024-01-30T05:52:45;23.73;;;14.43;;
27744;SDS011;61387;48.112;8.616;2024-01-30T05:55:11;28.53;;;15.50;;
27744;SDS011;61387;48.112;8.616;2024-01-30T05:57:37;26.80;;;13.77;;
27744;SDS011;61387;48.112;8.616;2024-01-30T06:00:04;37.00;;;20.87;;
27744;SDS011;61387;48.112;8.616;2024-01-30T06:02:31;30.33;;;17.43;;
27744;SDS011;61387;48.112;8.616;2024-01-30T06:04:58;31.70;;;15.07;;
27744;SDS011;61387;48.112;8.616;2024-01-30T06:07:23;25.67;;;15.60;;
27744;SDS011;61387;48.112;8.616;2024-01-30T06:09:49;33.50;;;17.20;;
27744;SDS011;61387;48.112;8.616;2024-01-30T06:12:14;34.43;;;18.00;;
27744;SDS011;61387;48.112;8.616;2024-01-30T06:14:40;31.80;;;17.73;;
27744;SDS011;61387;48.112;8.616;2024-01-30T06:17:07;31.90;;;17.77;;
27744;SDS011;61387;48.112;8.616;2024-01-30T06:19:33;31.63;;;17.60;;
27744;SDS011;61387;48.112;8.616;2024-01-30T06:21:59;32.87;;;17.63;;
27744;SDS011;61387;48.112;8.616;2024-01-30T06:24:25;36.80;;;19.17;;
27744;SDS011;61387;48.112;8.616;2024-01-30T06:26:51;41.57;;;20.30;;
27744;SDS011;61387;48.112;8.616;2024-01-30T06:29:16;36.10;;;18.60;;
27744;SDS011;61387;48.112;8.616;2024-01-30T06:31:42;35.17;;;19.17;;
27744;SDS011;61387;48.112;8.616;2024-01-30T06:34:08;31.47;;;17.50;;
27744;SDS011;61387;48.112;8.616;2024-01-30T06:36:34;36.60;;;17.83;;
27744;SDS011;61387;48.112;8.616;2024-01-30T06:39:00;33.80;;;17.17;;
27744;SDS011;61387;48.112;8.616;2024-01-30T06:41:27;31.17;;;17.13;;
27744;SDS011;61387;48.112;8.616;2024-01-30T06:43:52;31.87;;;18.37;;
27744;SDS011;61387;48.112;8.616;2024-01-30T06:46:18;33.70;;;18.90;;
27744;SDS011;61387;48.112;8.616;2024-01-30T06:48:43;30.87;;;17.33;;
27744;SDS011;61387;48.112;8.616;2024-01-30T06:51:10;31.47;;;16.70;;
27744;SDS011;61387;48.112;8.616;2024-01-30T06:53:36;30.70;;;17.00;;
27744;SDS011;61387;48.112;8.616;2024-01-30T06:56:01;30.77;;;15.90;;
27744;SDS011;61387;48.112;8.616;2024-01-30T06:58:28;32.97;;;16.63;;
27744;SDS011;61387;48.112;8.616;2024-01-30T07:00:54;29.53;;;15.87;;
27744;SDS011;61387;48.112;8.616;2024-01-30T07:03:20;29.67;;;15.30;;
27744;SDS011;61387;48.112;8.616;2024-01-30T07:05:46;25.27;;;13.03;;
27744;SDS011;61387;48.112;8.616;2024-01-30T07:08:12;24.10;;;12.77;;
27744;SDS011;61387;48.112;8.616;2024-01-30T07:10:37;25.93;;;14.77;;
27744;SDS011;61387;48.112;8.616;2024-01-30T07:13:04;31.03;;;15.73;;
27744;SDS011;61387;48.112;8.616;2024-01-30T07:15:31;29.93;;;15.23;;
27744;SDS011;61387;48.112;8.616;2024-01-30T07:17:57;23.43;;;11.63;;
27744;SDS011;61387;48.112;8.616;2024-01-30T07:20:22;25.93;;;13.37;;
27744;SDS011;61387;48.112;8.616;2024-01-30T07:22:48;19.00;;;10.73;;
27744;SDS011;61387;48.112;8.616;2024-01-30T07:25:14;18.97;;;10.93;;
27744;SDS011;61387;48.112;8.616;2024-01-30T07:27:41;22.40;;;11.37;;
27744;SDS011;61387;48.112;8.616;2024-01-30T07:30:07;28.45;;;14.73;;
27744;SDS011;61387;48.112;8.616;2024-01-30T07:32:33;29.83;;;16.23;;
27744;SDS011;61387;48.112;8.616;2024-01-30T07:34:58;37.30;;;19.30;;
27744;SDS011;61387;48.112;8.616;2024-01-30T07:37:24;35.03;;;16.20;;
27744;SDS011;61387;48.112;8.616;2024-01-30T07:39:50;27.63;;;13.80;;
27744;SDS011;61387;48.112;8.616;2024-01-30T07:42:16;24.80;;;12.07;;
27744;SDS011;61387;48.112;8.616;2024-01-30T07:44:42;19.83;;;10.30;;
27744;SDS011;61387;48.112;8.616;2024-01-30T07:47:09;18.57;;;10.43;;
27744;SDS011;61387;48.112;8.616;2024-01-30T07:49:35;20.43;;;10.07;;
27744;SDS011;61387;48.112;8.616;2024-01-30T07:52:00;16.42;;;9.88;;
27744;SDS011;61387;48.112;8.616;2024-01-30T07:54:26;21.77;;;11.37;;
27744;SDS011;61387;48.112;8.616;2024-01-30T07:56:52;21.17;;;12.27;;
27744;SDS011;61387;48.112;8.616;2024-01-30T07:59:18;33.83;;;16.73;;
27744;SDS011;61387;48.112;8.616;2024-01-30T08:01:46;36.27;;;17.33;;
27744;SDS011;61387;48.112;8.616;2024-01-30T08:04:12;33.67;;;18.07;;
27744;SDS011;61387;48.112;8.616;2024-01-30T08:06:38;32.93;;;16.67;;
27744;SDS011;61387;48.112;8.616;2024-01-30T08:09:03;38.77;;;20.83;;
27744;SDS011;61387;48.112;8.616;2024-01-30T08:11:30;40.50;;;22.33;;
27744;SDS011;61387;48.112;8.616;2024-01-30T08:13:56;34.63;;;18.53;;
27744;SDS011;61387;48.112;8.616;2024-01-30T08:16:22;35.87;;;18.80;;
27744;SDS011;61387;48.112;8.616;2024-01-30T08:18:47;37.20;;;19.87;;
27744;SDS011;61387;48.112;8.616;2024-01-30T08:21:13;44.07;;;22.67;;
27744;SDS011;61387;48.112;8.616;2024-01-30T08:23:39;38.53;;;21.90;;
27744;SDS011;61387;48.112;8.616;2024-01-30T08:26:05;37.83;;;21.13;;
27744;SDS011;61387;48.112;8.616;2024-01-30T08:28:30;33.77;;;18.70;;
27744;SDS011;61387;48.112;8.616;2024-01-30T08:30:56;32.87;;;17.93;;
27744;SDS011;61387;48.112;8.616;2024-01-30T08:33:22;36.20;;;19.23;;
27744;SDS011;61387;48.112;8.616;2024-01-30T08:35:47;33.03;;;17.77;;
27744;SDS011;61387;48.112;8.616;2024-01-30T08:38:13;30.47;;;16.30;;
27744;SDS011;61387;48.112;8.616;2024-01-30T08:40:39;27.17;;;15.73;;
27744;SDS011;61387;48.112;8.616;2024-01-30T08:43:04;26.90;;;16.27;;
27744;SDS011;61387;48.112;8.616;2024-01-30T08:45:30;23.83;;;14.70;;
27744;SDS011;61387;48.112;8.616;2024-01-30T08:47:56;23.77;;;14.33;;
27744;SDS011;61387;48.112;8.616;2024-01-30T08:50:21;26.03;;;14.40;;
27744;SDS011;61387;48.112;8.616;2024-01-30T08:52:47;26.07;;;13.70;;
27744;SDS011;61387;48.112;8.616;2024-01-30T08:55:13;23.53;;;13.03;;
27744;SDS011;61387;48.112;8.616;2024-01-30T08:57:39;20.40;;;12.20;;
27744;SDS011;61387;48.112;8.616;2024-01-30T09:00:05;21.47;;;13.00;;
27744;SDS011;61387;48.112;8.616;2024-01-30T09:02:34;20.33;;;12.30;;
27744;SDS011;61387;48.112;8.616;2024-01-30T09:04:59;21.43;;;13.07;;
27744;SDS011;61387;48.112;8.616;2024-01-30T09:07:25;20.40;;;12.63;;
27744;SDS011;61387;48.112;8.616;2024-01-30T09:09:50;18.73;;;10.93;;
27744;SDS011;61387;48.112;8.616;2024-01-30T09:12:16;17.07;;;8.13;;
27744;SDS011;61387;48.112;8.616;2024-01-30T09:14:42;14.87;;;8.83;;
27744;SDS011;61387;48.112;8.616;2024-01-30T09:17:08;14.13;;;8.63;;
27744;SDS011;61387;48.112;8.616;2024-01-30T09:19:34;14.37;;;8.23;;
27744;SDS011;61387;48.112;8.616;2024-01-30T09:22:00;15.50;;;9.00;;
27744;SDS011;61387;48.112;8.616;2024-01-30T09:24:26;13.67;;;8.57;;
27744;SDS011;61387;48.112;8.616;2024-01-30T09:26:52;17.57;;;10.23;;
27744;SDS011;61387;48.112;8.616;2024-01-30T09:29:17;16.93;;;10.53;;
27744;SDS011;61387;48.112;8.616;2024-01-30T09:31:44;19.40;;;11.00;;
27744;SDS011;61387;48.112;8.616;2024-01-30T09:34:10;19.07;;;11.23;;
27744;SDS011;61387;48.112;8.616;2024-01-30T09:36:36;15.55;;;9.77;;
27744;SDS011;61387;48.112;8.616;2024-01-30T09:39:01;16.07;;;9.57;;
27744;SDS011;61387;48.112;8.616;2024-01-30T09:41:28;25.43;;;13.67;;
27744;SDS011;61387;48.112;8.616;2024-01-30T09:43:56;20.80;;;11.27;;
27744;SDS011;61387;48.112;8.616;2024-01-30T09:46:22;18.40;;;10.30;;
27744;SDS011;61387;48.112;8.616;2024-01-30T09:48:52;17.63;;;10.40;;
27744;SDS011;61387;48.112;8.616;2024-01-30T09:51:20;16.83;;;10.03;;
27744;SDS011;61387;48.112;8.616;2024-01-30T09:53:47;16.93;;;11.27;;
27744;SDS011;61387;48.112;8.616;2024-01-30T09:56:13;15.67;;;9.40;;
27744;SDS011;61387;48.112;8.616;2024-01-30T09:58:39;12.43;;;8.60;;
27744;SDS011;61387;48.112;8.616;2024-01-30T10:01:05;15.30;;;9.10;;
27744;SDS011;61387;48.112;8.616;2024-01-30T10:03:32;13.83;;;7.70;;
27744;SDS011;61387;48.112;8.616;2024-01-30T10:05:57;13.32;;;7.95;;
27744;SDS011;61387;48.112;8.616;2024-01-30T10:08:23;12.77;;;7.97;;
27744;SDS011;61387;48.112;8.616;2024-01-30T10:10:49;13.13;;;8.23;;
27744;SDS011;61387;48.112;8.616;2024-01-30T10:13:15;15.97;;;9.13;;
27744;SDS011;61387;48.112;8.616;2024-01-30T10:15:41;24.60;;;11.97;;
27744;SDS011;61387;48.112;8.616;2024-01-30T10:18:07;16.73;;;10.37;;
27744;SDS011;61387;48.112;8.616;2024-01-30T10:20:34;17.47;;;10.40;;
27744;SDS011;61387;48.112;8.616;2024-01-30T10:23:01;15.93;;;10.37;;
27744;SDS011;61387;48.112;8.616;2024-01-30T10:25:27;15.87;;;9.30;;
27744;SDS011;61387;48.112;8.616;2024-01-30T10:27:53;16.80;;;9.03;;
27744;SDS011;61387;48.112;8.616;2024-01-30T10:30:21;17.03;;;9.77;;
27744;SDS011;61387;48.112;8.616;2024-01-30T10:32:47;14.70;;;9.10;;
27744;SDS011;61387;48.112;8.616;2024-01-30T10:35:13;66.87;;;33.37;;
27744;SDS011;61387;48.112;8.616;2024-01-30T10:37:39;16.50;;;10.20;;
27744;SDS011;61387;48.112;8.616;2024-01-30T10:40:05;15.47;;;10.13;;
27744;SDS011;61387;48.112;8.616;2024-01-30T10:42:32;16.07;;;10.43;;
27744;SDS011;61387;48.112;8.616;2024-01-30T10:47:34;19.03;;;10.47;;
27744;SDS011;61387;48.112;8.616;2024-01-30T10:50:03;15.50;;;9.47;;
27744;SDS011;61387;48.112;8.616;2024-01-30T10:52:30;20.63;;;11.37;;
27744;SDS011;61387;48.112;8.616;2024-01-30T10:54:57;15.77;;;10.00;;
27744;SDS011;61387;48.112;8.616;2024-01-30T10:57:25;17.07;;;10.27;;
27744;SDS011;61387;48.112;8.616;2024-01-30T10:59:52;16.90;;;9.70;;
27744;SDS011;61387;48.112;8.616;2024-01-30T11:02:21;16.60;;;9.57;;
27744;SDS011;61387;48.112;8.616;2024-01-30T11:04:48;23.77;;;14.97;;
27744;SDS011;61387;48.112;8.616;2024-01-30T11:07:15;18.40;;;10.47;;
27744;SDS011;61387;48.112;8.616;2024-01-30T11:09:48;16.90;;;11.50;;
27744;SDS011;61387;48.112;8.616;2024-01-30T11:12:16;18.10;;;11.37;;
27744;SDS011;61387;48.112;8.616;2024-01-30T11:14:41;21.17;;;12.63;;
27744;SDS011;61387;48.112;8.616;2024-01-30T11:17:08;20.57;;;12.97;;
27744;SDS011;61387;48.112;8.616;2024-01-30T11:19:37;19.40;;;12.30;;
27744;SDS011;61387;48.112;8.616;2024-01-30T11:22:03;19.00;;;11.90;;
27744;SDS011;61387;48.112;8.616;2024-01-30T11:24:29;20.13;;;12.23;;
27744;SDS011;61387;48.112;8.616;2024-01-30T11:26:55;20.40;;;11.83;;
27744;SDS011;61387;48.112;8.616;2024-01-30T11:29:29;19.27;;;11.70;;
27744;SDS011;61387;48.112;8.616;2024-01-30T11:31:55;18.53;;;11.13;;
27744;SDS011;61387;48.112;8.616;2024-01-30T11:34:22;22.53;;;12.73;;
27744;SDS011;61387;48.112;8.616;2024-01-30T11:36:51;18.20;;;12.47;;
27744;SDS011;61387;48.112;8.616;2024-01-30T11:39:28;18.27;;;11.80;;
27744;SDS011;61387;48.112;8.616;2024-01-30T11:41:55;20.80;;;12.57;;
27744;SDS011;61387;48.112;8.616;2024-01-30T11:44:21;21.40;;;12.10;;
27744;SDS011;61387;48.112;8.616;2024-01-30T11:46:50;18.13;;;12.40;;
27744;SDS011;61387;48.112;8.616;2024-01-30T11:49:17;22.20;;;11.97;;
27744;SDS011;61387;48.112;8.616;2024-01-30T11:51:43;16.60;;;11.37;;
27744;SDS011;61387;48.112;8.616;2024-01-30T11:54:10;18.87;;;10.03;;
27744;SDS011;61387;48.112;8.616;2024-01-30T11:56:37;17.43;;;10.13;;
27744;SDS011;61387;48.112;8.616;2024-01-30T11:59:03;17.27;;;9.80;;
27744;SDS011;61387;48.112;8.616;2024-01-30T12:01:30;17.90;;;10.80;;
27744;SDS011;61387;48.112;8.616;2024-01-30T12:03:57;19.00;;;11.23;;
27744;SDS011;61387;48.112;8.616;2024-01-30T12:06:23;21.07;;;11.40;;
27744;SDS011;61387;48.112;8.616;2024-01-30T12:09:01;24.87;;;12.63;;
27744;SDS011;61387;48.112;8.616;2024-01-30T12:11:29;18.57;;;12.07;;
27744;SDS011;61387;48.112;8.616;2024-01-30T12:13:55;22.07;;;12.33;;
27744;SDS011;61387;48.112;8.616;2024-01-30T12:16:21;19.03;;;11.27;;
27744;SDS011;61387;48.112;8.616;2024-01-30T12:18:47;17.47;;;11.90;;
27744;SDS011;61387;48.112;8.616;2024-01-30T12:21:15;20.23;;;11.33;;
27744;SDS011;61387;48.112;8.616;2024-01-30T12:23:41;21.70;;;12.07;;
27744;SDS011;61387;48.112;8.616;2024-01-30T12:26:07;19.37;;;11.73;;
27744;SDS011;61387;48.112;8.616;2024-01-30T12:28:33;17.93;;;11.13;;
27744;SDS011;61387;48.112;8.616;2024-01-30T12:31:02;26.60;;;13.67;;
27744;SDS011;61387;48.112;8.616;2024-01-30T12:33:29;18.70;;;10.93;;
27744;SDS011;61387;48.112;8.616;2024-01-30T12:35:55;18.57;;;10.50;;
27744;SDS011;61387;48.112;8.616;2024-01-30T12:38:22;17.60;;;10.20;;
27744;SDS011;61387;48.112;8.616;2024-01-30T12:40:48;17.77;;;9.83;;
27744;SDS011;61387;48.112;8.616;2024-01-30T12:43:14;18.33;;;9.80;;
27744;SDS011;61387;48.112;8.616;2024-01-30T12:45:41;15.07;;;9.47;;
27744;SDS011;61387;48.112;8.616;2024-01-30T12:48:06;13.60;;;8.43;;
27744;SDS011;61387;48.112;8.616;2024-01-30T12:50:32;22.33;;;12.37;;
27744;SDS011;61387;48.112;8.616;2024-01-30T12:52:58;16.83;;;9.73;;
27744;SDS011;61387;48.112;8.616;2024-01-30T12:55:28;15.53;;;9.33;;
27744;SDS011;61387;48.112;8.616;2024-01-30T12:57:55;13.73;;;8.20;;
27744;SDS011;61387;48.112;8.616;2024-01-30T13:00:21;12.53;;;8.77;;
27744;SDS011;61387;48.112;8.616;2024-01-30T13:02:47;19.37;;;8.40;;
27744;SDS011;61387;48.112;8.616;2024-01-30T13:05:13;13.20;;;7.50;;
27744;SDS011;61387;48.112;8.616;2024-01-30T13:07:39;14.03;;;6.93;;
27744;SDS011;61387;48.112;8.616;2024-01-30T13:10:04;11.80;;;6.67;;
27744;SDS011;61387;48.112;8.616;2024-01-30T13:12:31;14.77;;;7.27;;
27744;SDS011;61387;48.112;8.616;2024-01-30T13:15:01;11.67;;;6.70;;
27744;SDS011;61387;48.112;8.616;2024-01-30T13:17:28;11.87;;;6.77;;
27744;SDS011;61387;48.112;8.616;2024-01-30T13:19:54;13.47;;;7.70;;
27744;SDS011;61387;48.112;8.616;2024-01-30T13:22:20;14.30;;;6.30;;
27744;SDS011;61387;48.112;8.616;2024-01-30T13:24:49;12.00;;;6.60;;
27744;SDS011;61387;48.112;8.616;2024-01-30T13:27:14;15.37;;;7.40;;
27744;SDS011;61387;48.112;8.616;2024-01-30T13:29:40;13.13;;;6.47;;
27744;SDS011;61387;48.112;8.616;2024-01-30T13:32:06;12.90;;;6.10;;
27744;SDS011;61387;48.112;8.616;2024-01-30T13:34:31;13.17;;;6.73;;
27744;SDS011;61387;48.112;8.616;2024-01-30T13:36:57;14.97;;;6.17;;
27744;SDS011;61387;48.112;8.616;2024-01-30T13:39:23;15.10;;;8.33;;
27744;SDS011;61387;48.112;8.616;2024-01-30T13:41:49;16.90;;;8.20;;
27744;SDS011;61387;48.112;8.616;2024-01-30T13:44:15;12.40;;;6.63;;
27744;SDS011;61387;48.112;8.616;2024-01-30T13:46:45;11.93;;;6.17;;
27744;SDS011;61387;48.112;8.616;2024-01-30T13:49:11;9.97;;;5.63;;
27744;SDS011;61387;48.112;8.616;2024-01-30T13:51:37;8.27;;;5.37;;
27744;SDS011;61387;48.112;8.616;2024-01-30T13:54:04;12.30;;;5.23;;
27744;SDS011;61387;48.112;8.616;2024-01-30T13:56:30;13.43;;;6.73;;
27744;SDS011;61387;48.112;8.616;2024-01-30T13:58:56;9.50;;;4.97;;
27744;SDS011;61387;48.112;8.616;2024-01-30T14:01:21;12.27;;;5.40;;
27744;SDS011;61387;48.112;8.616;2024-01-30T14:03:58;9.20;;;4.83;;
27744;SDS011;61387;48.112;8.616;2024-01-30T14:06:24;6.53;;;4.07;;
27744;SDS011;61387;48.112;8.616;2024-01-30T14:08:49;14.50;;;4.37;;
27744;SDS011;61387;48.112;8.616;2024-01-30T14:11:15;10.07;;;6.07;;
27744;SDS011;61387;48.112;8.616;2024-01-30T14:13:40;17.27;;;9.83;;
27744;SDS011;61387;48.112;8.616;2024-01-30T14:16:06;12.57;;;6.53;;
27744;SDS011;61387;48.112;8.616;2024-01-30T14:18:32;11.10;;;5.63;;
27744;SDS011;61387;48.112;8.616;2024-01-30T14:20:57;8.93;;;5.50;;
27744;SDS011;61387;48.112;8.616;2024-01-30T14:23:23;9.07;;;4.97;;
27744;SDS011;61387;48.112;8.616;2024-01-30T14:25:49;9.80;;;4.70;;